Time;durP1;ratioP1;P1;durP2;ratioP2;P2;SDS_P1;SDS_P2;PMS_P1;PMS_P2;Temp;Humidity;BMP_temperature;BMP_pressure;BME280_temperature;BME280_humidity;BME280_pressure;Samples;Min_cycle;Max_cycle;Signal;HPM_P1;HPM_P2
2022/10/20 00:02:20;;;;;;;1.42;1.38;;;;;;;;;;5051183;28;20040;-73
2022/10/20 00:04:46;;;;;;;0.20;0.20;;;;;;;;;;5051458;28;20160;-73
2022/10/20 00:07:11;;;;;;;0.30;0.30;;;;;;;;;;5051431;28;20049;-73
2022/10/20 00:09:36;;;;;;;0.20;0.20;;;;;;;;;;5052034;28;20029;-73
2022/10/20 00:12:02;;;;;;;0.20;0.20;;;;;;;;;;5053108;28;20033;-72
2022/10/20 00:14:27;;;;;;;0.40;0.40;;;;;;;;;;5053606;28;20024;-72
2022/10/20 00:16:53;;;;;;;0.30;0.30;;;;;;;;;;5053367;28;20025;-73
2022/10/20 00:19:18;;;;;;;0.15;0.15;;;;;;;;;;5053362;28;20057;-73
2022/10/20 00:21:44;;;;;;;0.63;0.63;;;;;;;;;;5053451;28;20040;-72
2022/10/20 00:24:09;;;;;;;3.20;1.85;;;;;;;;;;5053411;28;20368;-73
2022/10/20 00:26:35;;;;;;;0.10;0.10;;;;;;;;;;5053454;28;20128;-73
2022/10/20 00:29:02;;;;;;;0.10;0.10;;;;;;;;;;5053343;28;20029;-73
2022/10/20 00:31:27;;;;;;;0.20;0.20;;;;;;;;;;5053161;28;20020;-73
2022/10/20 00:33:52;;;;;;;0.20;0.20;;;;;;;;;;5053231;28;20040;-73
2022/10/20 00:36:19;;;;;;;0.13;0.13;;;;;;;;;;5053310;28;20043;-73
2022/10/20 00:38:45;;;;;;;3.88;3.58;;;;;;;;;;5053314;28;20040;-73
2022/10/20 00:41:19;;;;;;;0.20;0.20;;;;;;;;;;5035043;28;20053;-73
2022/10/20 00:43:49;;;;;;;0.20;0.20;;;;;;;;;;5053229;28;20471;-73
2022/10/20 00:46:33;;;;;;;0.45;0.45;;;;;;;;;;5052962;28;20372;-73
2022/10/20 00:49:13;;;;;;;0.20;0.20;;;;;;;;;;5053263;28;20021;-72
2022/10/20 00:51:38;;;;;;;0.10;0.10;;;;;;;;;;5035272;28;20033;-72
2022/10/20 00:54:12;;;;;;;2.33;2.20;;;;;;;;;;5053124;28;20032;-72
2022/10/20 00:56:39;;;;;;;0.28;0.28;;;;;;;;;;5052861;28;20111;-73
2022/10/20 00:59:05;;;;;;;0.40;0.40;;;;;;;;;;5053309;28;20028;-71
2022/10/20 01:01:31;;;;;;;0.30;0.30;;;;;;;;;;5053093;28;20544;-72
2022/10/20 01:03:56;;;;;;;0.20;0.20;;;;;;;;;;5053203;28;20037;-71
2022/10/20 01:06:23;;;;;;;0.10;0.10;;;;;;;;;;5053316;28;20021;-72
2022/10/20 01:08:49;;;;;;;0.35;0.35;;;;;;;;;;5035074;28;20347;-72
2022/10/20 01:11:21;;;;;;;0.25;0.25;;;;;;;;;;5052813;28;20021;-73
2022/10/20 01:13:47;;;;;;;0.20;0.20;;;;;;;;;;5035300;28;20379;-72
2022/10/20 01:16:18;;;;;;;0.10;0.10;;;;;;;;;;5053125;28;20033;-73
2022/10/20 01:18:49;;;;;;;0.20;0.20;;;;;;;;;;5050504;28;20043;-73
2022/10/20 01:21:33;;;;;;;0.38;0.38;;;;;;;;;;5052839;28;20036;-74
2022/10/20 01:24:07;;;;;;;0.17;0.17;;;;;;;;;;5055436;28;20086;-73
2022/10/20 01:26:53;;;;;;;0.10;0.10;;;;;;;;;;5039013;28;20040;-73
2022/10/20 01:29:24;;;;;;;2.67;2.58;;;;;;;;;;5038935;28;20029;-74
2022/10/20 01:31:49;;;;;;;1.23;1.23;;;;;;;;;;5056709;28;20029;-73
2022/10/20 01:34:20;;;;;;;0.10;0.10;;;;;;;;;;5052241;28;20418;-73
2022/10/20 01:36:53;;;;;;;0.10;0.10;;;;;;;;;;5015488;28;20025;-72
2022/10/20 01:39:29;;;;;;;0.13;0.13;;;;;;;;;;5036718;28;20025;-73
2022/10/20 01:42:08;;;;;;;0.73;0.73;;;;;;;;;;5036417;28;20099;-73
2022/10/20 01:44:35;;;;;;;0.40;0.40;;;;;;;;;;5036577;28;20372;-73
2022/10/20 01:47:01;;;;;;;0.20;0.20;;;;;;;;;;5035256;28;20144;-74
2022/10/20 01:49:26;;;;;;;0.10;0.10;;;;;;;;;;5056679;28;20048;-74
2022/10/20 01:51:52;;;;;;;0.22;0.22;;;;;;;;;;5056370;28;20029;-73
2022/10/20 01:54:22;;;;;;;0.20;0.20;;;;;;;;;;5056135;28;20475;-73
2022/10/20 01:56:59;;;;;;;0.45;0.45;;;;;;;;;;5056135;28;20565;-74
2022/10/20 01:59:36;;;;;;;0.20;0.20;;;;;;;;;;5055935;28;20021;-73
2022/10/20 02:02:12;;;;;;;0.40;0.40;;;;;;;;;;5056208;28;20049;-73
2022/10/20 02:04:56;;;;;;;0.10;0.10;;;;;;;;;;5055032;28;20049;-73
2022/10/20 02:07:26;;;;;;;0.20;0.20;;;;;;;;;;5054697;28;20029;-73
2022/10/20 02:09:54;;;;;;;0.10;0.10;;;;;;;;;;5054585;28;20025;-73
2022/10/20 02:12:23;;;;;;;0.17;0.17;;;;;;;;;;5038077;28;20029;-73
2022/10/20 02:14:48;;;;;;;0.17;0.17;;;;;;;;;;5056168;28;20036;-73
2022/10/20 02:17:15;;;;;;;0.20;0.20;;;;;;;;;;5055809;28;20486;-73
2022/10/20 02:19:42;;;;;;;0.10;0.10;;;;;;;;;;5054871;28;20101;-73
2022/10/20 02:22:08;;;;;;;0.10;0.10;;;;;;;;;;5055597;28;20045;-73
2022/10/20 02:24:35;;;;;;;1.50;1.40;;;;;;;;;;5036621;28;20431;-73
2022/10/20 02:27:02;;;;;;;0.20;0.20;;;;;;;;;;5053759;28;20029;-73
2022/10/20 02:29:29;;;;;;;0.17;0.17;;;;;;;;;;5055503;28;20033;-73
2022/10/20 02:31:55;;;;;;;0.20;0.20;;;;;;;;;;5054486;28;20383;-73
2022/10/20 02:34:24;;;;;;;0.38;0.38;;;;;;;;;;5055086;28;20021;-74
2022/10/20 02:36:49;;;;;;;0.10;0.10;;;;;;;;;;5055262;28;20111;-73
2022/10/20 02:39:14;;;;;;;0.52;0.52;;;;;;;;;;5055177;28;20112;-72
2022/10/20 02:41:40;;;;;;;0.40;0.40;;;;;;;;;;5055064;28;20055;-72
2022/10/20 02:44:05;;;;;;;0.10;0.10;;;;;;;;;;5055258;28;20032;-71
2022/10/20 02:46:31;;;;;;;0.20;0.20;;;;;;;;;;5054344;28;20525;-73
2022/10/20 02:48:56;;;;;;;0.10;0.10;;;;;;;;;;5053948;28;20033;-72
2022/10/20 02:51:22;;;;;;;0.20;0.20;;;;;;;;;;5055349;28;20087;-72
2022/10/20 02:53:48;;;;;;;0.10;0.10;;;;;;;;;;5054899;28;20027;-74
2022/10/20 02:56:14;;;;;;;0.20;0.20;;;;;;;;;;5037434;28;20467;-72
2022/10/20 02:58:39;;;;;;;0.10;0.10;;;;;;;;;;5055057;28;20025;-73
2022/10/20 03:01:05;;;;;;;0.20;0.20;;;;;;;;;;5053995;28;20037;-73
2022/10/20 03:03:30;;;;;;;0.35;0.35;;;;;;;;;;5049092;28;20036;-73
2022/10/20 03:05:56;;;;;;;0.28;0.28;;;;;;;;;;5050943;28;20028;-73
2022/10/20 03:08:22;;;;;;;0.10;0.10;;;;;;;;;;5050343;28;20029;-73
2022/10/20 03:10:47;;;;;;;0.10;0.10;;;;;;;;;;5051308;28;20044;-73
2022/10/20 03:13:14;;;;;;;0.20;0.20;;;;;;;;;;5050797;28;20162;-74
2022/10/20 03:15:40;;;;;;;0.10;0.10;;;;;;;;;;5051100;28;20040;-73
2022/10/20 03:18:05;;;;;;;0.10;0.10;;;;;;;;;;5050944;28;20376;-73
2022/10/20 03:20:31;;;;;;;0.20;0.20;;;;;;;;;;5050713;28;20051;-72
2022/10/20 03:22:57;;;;;;;0.10;0.10;;;;;;;;;;5049311;28;20445;-74
2022/10/20 03:25:22;;;;;;;0.10;0.10;;;;;;;;;;5050504;28;20108;-73
2022/10/20 03:27:50;;;;;;;0.10;0.10;;;;;;;;;;5033206;28;20055;-73
2022/10/20 03:30:16;;;;;;;0.10;0.10;;;;;;;;;;5049671;28;20531;-73
2022/10/20 03:32:41;;;;;;;0.10;0.10;;;;;;;;;;5050752;28;20016;-73
2022/10/20 03:35:07;;;;;;;0.35;0.35;;;;;;;;;;5033111;28;20033;-75
2022/10/20 03:37:33;;;;;;;6.05;2.22;;;;;;;;;;5050301;28;20033;-74
2022/10/20 03:39:58;;;;;;;0.10;0.10;;;;;;;;;;5050619;28;20041;-74
2022/10/20 03:42:24;;;;;;;0.20;0.20;;;;;;;;;;5049843;28;20083;-74
2022/10/20 03:44:49;;;;;;;4.45;1.27;;;;;;;;;;5050183;28;20471;-75
2022/10/20 03:47:15;;;;;;;0.10;0.10;;;;;;;;;;5048768;28;20029;-74
2022/10/20 03:49:40;;;;;;;0.20;0.20;;;;;;;;;;5033036;28;20464;-74
2022/10/20 03:52:06;;;;;;;0.30;0.30;;;;;;;;;;5050162;28;20017;-73
2022/10/20 03:54:31;;;;;;;0.10;0.10;;;;;;;;;;5049800;28;20083;-73
2022/10/20 03:56:57;;;;;;;0.10;0.10;;;;;;;;;;5050749;28;20119;-73
2022/10/20 03:59:22;;;;;;;0.10;0.10;;;;;;;;;;5032273;28;20029;-72
2022/10/20 04:01:48;;;;;;;0.10;0.10;;;;;;;;;;5049001;28;20048;-74
2022/10/20 04:04:13;;;;;;;0.10;0.10;;;;;;;;;;5050035;28;20159;-73
2022/10/20 04:06:39;;;;;;;0.10;0.10;;;;;;;;;;5048000;28;20029;-73
2022/10/20 04:09:05;;;;;;;0.25;0.25;;;;;;;;;;5049666;28;20107;-73
2022/10/20 04:11:31;;;;;;;0.10;0.10;;;;;;;;;;5031784;28;20028;-72
2022/10/20 04:13:57;;;;;;;0.10;0.10;;;;;;;;;;5049853;28;20029;-72
2022/10/20 04:16:23;;;;;;;3.33;2.88;;;;;;;;;;5049662;28;20472;-72
2022/10/20 04:18:48;;;;;;;0.10;0.10;;;;;;;;;;5047415;28;20070;-72
2022/10/20 04:21:14;;;;;;;0.30;0.30;;;;;;;;;;5049682;28;20025;-73
2022/10/20 04:23:39;;;;;;;0.10;0.10;;;;;;;;;;5048324;28;20117;-74
2022/10/20 04:26:12;;;;;;;0.10;0.10;;;;;;;;;;5049784;28;20067;-73
2022/10/20 04:28:38;;;;;;;0.10;0.10;;;;;;;;;;5048297;28;20033;-73
2022/10/20 04:31:04;;;;;;;0.75;0.75;;;;;;;;;;5048939;28;20120;-74
2022/10/20 04:33:29;;;;;;;0.10;0.10;;;;;;;;;;5049536;28;20079;-73
2022/10/20 04:35:59;;;;;;;6.10;5.57;;;;;;;;;;5048389;28;20571;-72
2022/10/20 04:38:24;;;;;;;1.30;1.23;;;;;;;;;;5031442;28;20039;-73
2022/10/20 04:40:53;;;;;;;37.05;2.28;;;;;;;;;;5049397;28;20041;-73
2022/10/20 04:43:19;;;;;;;0.20;0.20;;;;;;;;;;5049483;28;20033;-73
2022/10/20 04:45:44;;;;;;;0.30;0.30;;;;;;;;;;5048615;28;20025;-74
2022/10/20 04:48:10;;;;;;;0.10;0.10;;;;;;;;;;5048825;28;20029;-73
2022/10/20 04:50:35;;;;;;;3.65;2.55;;;;;;;;;;5049267;28;20033;-73
2022/10/20 04:53:07;;;;;;;1.00;1.00;;;;;;;;;;5049438;28;20032;-72
2022/10/20 04:55:33;;;;;;;0.10;0.10;;;;;;;;;;5048638;28;20021;-72
2022/10/20 04:57:59;;;;;;;0.10;0.10;;;;;;;;;;5052154;28;20033;-72
2022/10/20 05:00:24;;;;;;;0.10;0.10;;;;;;;;;;5050989;28;20025;-73
2022/10/20 05:02:50;;;;;;;0.10;0.10;;;;;;;;;;5053401;28;20041;-74
2022/10/20 05:05:15;;;;;;;0.10;0.10;;;;;;;;;;5052893;28;20021;-73
2022/10/20 05:07:41;;;;;;;0.10;0.10;;;;;;;;;;5051840;28;20179;-73
2022/10/20 05:10:07;;;;;;;0.10;0.10;;;;;;;;;;5046663;28;20025;-72
2022/10/20 05:12:32;;;;;;;0.15;0.15;;;;;;;;;;5034386;28;20033;-72
2022/10/20 05:14:58;;;;;;;0.13;0.13;;;;;;;;;;5048515;28;20123;-73
2022/10/20 05:17:24;;;;;;;0.30;0.30;;;;;;;;;;5045682;28;20590;-73
2022/10/20 05:19:49;;;;;;;0.28;0.28;;;;;;;;;;5040533;28;20360;-74
2022/10/20 05:22:15;;;;;;;0.10;0.10;;;;;;;;;;5033475;28;20488;-73
2022/10/20 05:24:40;;;;;;;1.15;1.10;;;;;;;;;;5052434;28;20013;-74
2022/10/20 05:27:05;;;;;;;0.10;0.10;;;;;;;;;;5052623;28;20467;-74
2022/10/20 05:29:31;;;;;;;0.20;0.20;;;;;;;;;;5051481;28;20032;-75
2022/10/20 05:31:56;;;;;;;0.75;0.75;;;;;;;;;;5049336;28;20506;-74
2022/10/20 05:34:22;;;;;;;0.10;0.10;;;;;;;;;;5046783;28;20036;-76
2022/10/20 05:36:47;;;;;;;0.30;0.30;;;;;;;;;;5052390;28;20125;-73
2022/10/20 05:39:13;;;;;;;0.10;0.10;;;;;;;;;;5050890;28;20068;-73
2022/10/20 05:41:38;;;;;;;0.10;0.10;;;;;;;;;;5052133;28;20053;-73
2022/10/20 05:44:04;;;;;;;0.10;0.10;;;;;;;;;;5052886;28;20027;-73
2022/10/20 05:46:31;;;;;;;2.38;2.28;;;;;;;;;;5051234;28;20360;-74
2022/10/20 05:48:58;;;;;;;0.28;0.28;;;;;;;;;;5043656;28;20064;-73
2022/10/20 05:51:25;;;;;;;0.13;0.13;;;;;;;;;;5018612;28;20037;-72
2022/10/20 05:53:51;;;;;;;0.10;0.10;;;;;;;;;;5032458;28;20028;-73
2022/10/20 05:56:18;;;;;;;0.10;0.10;;;;;;;;;;5044044;28;20025;-73
2022/10/20 05:58:44;;;;;;;0.10;0.10;;;;;;;;;;5045361;28;20556;-73
2022/10/20 06:04:38;;;;;;;0.10;0.10;;;;;;;;;;5049788;28;20036;-73
2022/10/20 06:07:08;;;;;;;0.10;0.10;;;;;;;;;;5052322;28;20033;-74
2022/10/20 06:09:34;;;;;;;0.10;0.10;;;;;;;;;;5050351;28;20100;-73
2022/10/20 06:12:00;;;;;;;0.10;0.10;;;;;;;;;;5038499;28;20044;-74
2022/10/20 06:14:26;;;;;;;1.25;1.25;;;;;;;;;;5049007;28;20383;-73
2022/10/20 06:20:19;;;;;;;0.10;0.10;;;;;;;;;;5050368;28;20040;-73
2022/10/20 06:22:44;;;;;;;0.17;0.17;;;;;;;;;;5040503;28;20030;-73
2022/10/20 06:25:10;;;;;;;3.40;3.20;;;;;;;;;;5049052;28;20033;-75
2022/10/20 06:27:35;;;;;;;0.20;0.20;;;;;;;;;;5051881;28;20025;-73
2022/10/20 06:30:01;;;;;;;0.30;0.30;;;;;;;;;;5051386;28;20102;-73
2022/10/20 06:32:26;;;;;;;2.08;1.98;;;;;;;;;;5050307;28;20484;-72
2022/10/20 06:34:53;;;;;;;0.20;0.20;;;;;;;;;;5050528;28;20033;-73
2022/10/20 06:37:18;;;;;;;0.20;0.20;;;;;;;;;;5049982;28;21017;-74
2022/10/20 06:39:43;;;;;;;0.10;0.10;;;;;;;;;;5051276;28;20107;-74
2022/10/20 06:42:09;;;;;;;0.10;0.10;;;;;;;;;;5049966;28;20500;-74
2022/10/20 06:44:34;;;;;;;0.20;0.20;;;;;;;;;;5034236;28;20021;-75
2022/10/20 06:47:00;;;;;;;0.20;0.20;;;;;;;;;;5038323;28;20098;-75
2022/10/20 06:49:25;;;;;;;0.20;0.20;;;;;;;;;;5031039;28;20025;-73
2022/10/20 06:51:51;;;;;;;1.05;1.05;;;;;;;;;;5031067;28;20041;-72
2022/10/20 06:54:16;;;;;;;0.30;0.30;;;;;;;;;;5031089;28;20009;-73
2022/10/20 06:56:42;;;;;;;0.20;0.20;;;;;;;;;;5031275;28;20029;-73
2022/10/20 06:59:07;;;;;;;0.63;0.63;;;;;;;;;;5015773;28;20025;-73
2022/10/20 07:01:34;;;;;;;1.75;1.13;;;;;;;;;;5045389;28;20397;-73
2022/10/20 07:04:01;;;;;;;0.90;0.90;;;;;;;;;;5033020;28;20025;-73
2022/10/20 07:06:28;;;;;;;2.90;2.80;;;;;;;;;;5039864;28;20472;-74
2022/10/20 07:08:55;;;;;;;0.20;0.20;;;;;;;;;;5050791;28;20025;-73
2022/10/20 07:11:22;;;;;;;0.15;0.15;;;;;;;;;;5050839;28;20079;-74
2022/10/20 07:13:48;;;;;;;3.10;1.27;;;;;;;;;;5033163;28;20028;-72
2022/10/20 07:16:15;;;;;;;0.10;0.10;;;;;;;;;;5043655;28;20764;-74
2022/10/20 07:18:40;;;;;;;0.20;0.20;;;;;;;;;;5034461;28;20040;-73
2022/10/20 07:21:07;;;;;;;0.20;0.20;;;;;;;;;;5046376;28;20041;-74
2022/10/20 07:23:34;;;;;;;0.68;0.68;;;;;;;;;;5049464;28;20421;-73
2022/10/20 07:26:03;;;;;;;0.20;0.20;;;;;;;;;;5050461;28;20040;-72
2022/10/20 07:28:29;;;;;;;0.30;0.30;;;;;;;;;;5043706;28;20021;-71
2022/10/20 07:30:54;;;;;;;0.55;0.55;;;;;;;;;;5050159;28;20388;-70
2022/10/20 07:33:20;;;;;;;7.88;7.32;;;;;;;;;;5049602;28;20029;-70
2022/10/20 07:35:45;;;;;;;0.20;0.20;;;;;;;;;;5048729;28;20468;-71
2022/10/20 07:38:11;;;;;;;0.20;0.20;;;;;;;;;;5050062;28;20079;-70
2022/10/20 07:40:36;;;;;;;0.10;0.10;;;;;;;;;;5045040;28;20593;-72
2022/10/20 07:43:01;;;;;;;0.20;0.20;;;;;;;;;;5050294;28;20053;-70
2022/10/20 07:45:27;;;;;;;0.20;0.20;;;;;;;;;;5050149;28;20502;-71
2022/10/20 07:47:52;;;;;;;0.20;0.20;;;;;;;;;;5049763;28;20025;-70
2022/10/20 07:50:18;;;;;;;0.20;0.20;;;;;;;;;;5045154;28;20036;-71
2022/10/20 07:52:43;;;;;;;0.10;0.10;;;;;;;;;;5050122;28;20040;-70
2022/10/20 07:55:09;;;;;;;0.20;0.20;;;;;;;;;;5009622;28;20539;-70
2022/10/20 07:57:34;;;;;;;0.40;0.40;;;;;;;;;;5032375;28;20029;-71
2022/10/20 07:59:59;;;;;;;0.30;0.30;;;;;;;;;;5032044;28;20453;-70
2022/10/20 08:02:25;;;;;;;0.30;0.30;;;;;;;;;;5022325;28;20128;-70
2022/10/20 08:04:50;;;;;;;0.20;0.20;;;;;;;;;;5049716;28;20052;-71
2022/10/20 08:07:16;;;;;;;0.75;0.75;;;;;;;;;;5049742;28;20087;-71
2022/10/20 08:09:41;;;;;;;0.20;0.20;;;;;;;;;;5046955;28;20041;-71
2022/10/20 08:12:07;;;;;;;0.20;0.20;;;;;;;;;;5045388;28;20076;-70
2022/10/20 08:14:34;;;;;;;0.43;0.43;;;;;;;;;;5035894;28;20471;-70
2022/10/20 08:17:03;;;;;;;0.20;0.20;;;;;;;;;;5043998;28;20499;-69
2022/10/20 08:19:29;;;;;;;0.20;0.20;;;;;;;;;;5025590;28;20056;-71
2022/10/20 08:21:54;;;;;;;0.55;0.55;;;;;;;;;;5019325;28;20575;-70
2022/10/20 08:24:20;;;;;;;0.20;0.20;;;;;;;;;;5046572;28;20128;-69
2022/10/20 08:26:45;;;;;;;0.20;0.20;;;;;;;;;;5047116;28;20033;-70
2022/10/20 08:29:11;;;;;;;0.22;0.22;;;;;;;;;;5049338;28;20017;-70
2022/10/20 08:31:37;;;;;;;0.30;0.30;;;;;;;;;;5046569;28;20114;-71
2022/10/20 08:34:02;;;;;;;0.20;0.20;;;;;;;;;;5048572;28;20112;-71
2022/10/20 08:36:28;;;;;;;0.38;0.38;;;;;;;;;;5045876;28;20124;-70
2022/10/20 08:38:55;;;;;;;0.20;0.20;;;;;;;;;;5027535;28;20148;-70
2022/10/20 08:41:21;;;;;;;0.20;0.20;;;;;;;;;;5027904;28;20114;-69
2022/10/20 08:43:49;;;;;;;0.20;0.20;;;;;;;;;;5017224;28;20059;-70
2022/10/20 08:46:16;;;;;;;0.10;0.10;;;;;;;;;;5048490;28;20021;-71
2022/10/20 08:48:41;;;;;;;0.20;0.20;;;;;;;;;;5047779;28;20029;-72
2022/10/20 08:51:14;;;;;;;1.38;1.27;;;;;;;;;;5026072;28;20029;-71
2022/10/20 08:53:40;;;;;;;0.20;0.20;;;;;;;;;;5026606;28;20063;-70
2022/10/20 08:56:08;;;;;;;0.30;0.30;;;;;;;;;;5047003;28;20741;-69
2022/10/20 08:58:34;;;;;;;0.38;0.38;;;;;;;;;;5045657;28;20387;-69
2022/10/20 09:01:20;;;;;;;1.98;1.52;;;;;;;;;;5044767;28;20036;-69
2022/10/20 09:03:48;;;;;;;0.20;0.20;;;;;;;;;;5020586;28;20037;-69
2022/10/20 09:06:15;;;;;;;0.68;0.68;;;;;;;;;;5049130;28;20099;-69
2022/10/20 09:08:41;;;;;;;0.13;0.13;;;;;;;;;;5049066;28;20555;-71
2022/10/20 09:11:10;;;;;;;0.20;0.20;;;;;;;;;;5048988;28;20025;-71
2022/10/20 09:13:36;;;;;;;0.20;0.20;;;;;;;;;;5048914;28;20032;-70
2022/10/20 09:16:10;;;;;;;0.20;0.20;;;;;;;;;;5048513;28;20033;-70
2022/10/20 09:18:36;;;;;;;0.40;0.40;;;;;;;;;;5031132;28;20761;-71
2022/10/20 09:21:02;;;;;;;2.58;2.20;;;;;;;;;;5049464;28;20035;-70
2022/10/20 09:23:35;;;;;;;0.20;0.20;;;;;;;;;;5048885;28;20039;-70
2022/10/20 09:26:01;;;;;;;0.43;0.43;;;;;;;;;;5031554;28;20052;-70
2022/10/20 09:28:27;;;;;;;1.13;1.13;;;;;;;;;;5031199;28;20072;-73
2022/10/20 09:30:53;;;;;;;0.20;0.20;;;;;;;;;;5048921;28;20376;-70
2022/10/20 09:33:37;;;;;;;0.32;0.32;;;;;;;;;;5048728;28;20128;-68
2022/10/20 09:36:04;;;;;;;0.30;0.30;;;;;;;;;;5049184;28;20056;-70
2022/10/20 09:38:32;;;;;;;1.35;0.68;;;;;;;;;;5048519;28;20025;-72
2022/10/20 09:41:08;;;;;;;0.47;0.47;;;;;;;;;;5048162;28;20427;-71
2022/10/20 09:43:34;;;;;;;0.30;0.30;;;;;;;;;;5048816;28;20029;-70
2022/10/20 09:46:03;;;;;;;4.10;2.10;;;;;;;;;;5034618;28;20509;-70
2022/10/20 09:48:29;;;;;;;;;;;;;;;;;;5029140;28;20501;-71
2022/10/20 09:50:55;;;;;;;0.30;0.30;;;;;;;;;;5044984;28;19919;-71
2022/10/20 09:53:24;;;;;;;0.30;0.30;;;;;;;;;;5032475;28;20263;-71
2022/10/20 09:55:50;;;;;;;0.28;0.28;;;;;;;;;;5030413;28;20071;-70
2022/10/20 09:58:20;;;;;;;0.65;0.65;;;;;;;;;;5013948;28;20029;-72
2022/10/20 10:00:53;;;;;;;0.30;0.30;;;;;;;;;;5032219;28;20026;-71
2022/10/20 10:03:20;;;;;;;0.22;0.22;;;;;;;;;;5031612;28;20029;-71
2022/10/20 10:05:49;;;;;;;3.20;2.33;;;;;;;;;;5031890;28;20036;-71
2022/10/20 10:08:15;;;;;;;0.40;0.40;;;;;;;;;;5031779;28;20029;-71
2022/10/20 10:10:42;;;;;;;0.30;0.30;;;;;;;;;;5031819;28;20507;-72
2022/10/20 10:13:19;;;;;;;0.30;0.30;;;;;;;;;;5031840;28;20037;-71
2022/10/20 10:15:44;;;;;;;0.30;0.30;;;;;;;;;;5032046;28;20052;-71
2022/10/20 10:18:14;;;;;;;0.20;0.20;;;;;;;;;;5032082;28;20447;-71
2022/10/20 10:20:40;;;;;;;0.50;0.50;;;;;;;;;;5013319;28;20025;-71
2022/10/20 10:23:19;;;;;;;0.20;0.20;;;;;;;;;;5028986;28;20041;-70
2022/10/20 10:25:45;;;;;;;0.30;0.30;;;;;;;;;;5046832;28;20144;-72
2022/10/20 10:28:19;;;;;;;0.82;0.68;;;;;;;;;;5041914;28;20100;-71
2022/10/20 10:30:45;;;;;;;0.52;0.50;;;;;;;;;;5042433;28;20345;-70
2022/10/20 10:33:27;;;;;;;0.30;0.30;;;;;;;;;;5040756;28;20035;-70
2022/10/20 10:35:53;;;;;;;0.20;0.20;;;;;;;;;;5044697;28;20033;-70
2022/10/20 10:38:19;;;;;;;0.80;0.80;;;;;;;;;;5033466;28;20035;-69
2022/10/20 10:40:51;;;;;;;0.88;0.88;;;;;;;;;;5050985;28;20029;-70
2022/10/20 10:43:16;;;;;;;0.22;0.22;;;;;;;;;;5051635;28;20028;-70
2022/10/20 10:45:45;;;;;;;1.27;1.05;;;;;;;;;;5051554;28;20388;-70
2022/10/20 10:48:13;;;;;;;3.03;1.50;;;;;;;;;;5051383;28;20064;-70
2022/10/20 10:50:39;;;;;;;0.73;0.70;;;;;;;;;;5050901;28;20044;-69
2022/10/20 10:53:13;;;;;;;0.20;0.20;;;;;;;;;;5033389;28;20036;-69
2022/10/20 10:55:51;;;;;;;0.73;0.73;;;;;;;;;;5051082;28;20033;-69
2022/10/20 10:58:17;;;;;;;0.95;0.93;;;;;;;;;;5050623;28;20044;-72
2022/10/20 11:01:05;;;;;;;0.73;0.60;;;;;;;;;;5050671;28;20032;-70
2022/10/20 11:03:49;;;;;;;0.73;0.47;;;;;;;;;;5037370;28;20052;-70
2022/10/20 11:06:15;;;;;;;0.20;0.20;;;;;;;;;;5051202;28;20040;-69
2022/10/20 11:08:40;;;;;;;0.30;0.30;;;;;;;;;;5050627;28;20036;-71
2022/10/20 11:11:15;;;;;;;0.35;0.35;;;;;;;;;;5051337;28;20032;-70
2022/10/20 11:14:09;;;;;;;0.85;0.75;;;;;;;;;;5032816;28;20039;-70
2022/10/20 11:16:55;;;;;;;0.73;0.40;;;;;;;;;;5050997;28;20090;-70
2022/10/20 11:19:36;;;;;;;0.95;0.85;;;;;;;;;;5050095;28;20086;-70
2022/10/20 11:22:04;;;;;;;0.60;0.50;;;;;;;;;;5050068;28;20041;-70
2022/10/20 11:24:37;;;;;;;0.30;0.30;;;;;;;;;;5049508;28;20025;-70
2022/10/20 11:27:13;;;;;;;1.02;0.88;;;;;;;;;;5050516;28;20036;-70
2022/10/20 11:29:44;;;;;;;1.20;0.63;;;;;;;;;;5050203;28;20043;-70
2022/10/20 11:32:10;;;;;;;0.30;0.30;;;;;;;;;;5050093;28;20121;-70
2022/10/20 11:34:38;;;;;;;0.40;0.40;;;;;;;;;;5049503;28;20107;-70
2022/10/20 11:37:06;;;;;;;4.27;2.50;;;;;;;;;;5050245;28;20033;-69
2022/10/20 11:39:35;;;;;;;0.20;0.20;;;;;;;;;;5048211;28;20486;-69
2022/10/20 11:42:09;;;;;;;46.42;2.42;;;;;;;;;;5039662;28;20057;-71
2022/10/20 11:44:40;;;;;;;0.30;0.30;;;;;;;;;;5043638;28;20083;-71
2022/10/20 11:47:11;;;;;;;0.30;0.30;;;;;;;;;;5023124;28;20037;-72
2022/10/20 11:49:38;;;;;;;4.57;2.25;;;;;;;;;;5012068;28;20037;-71
2022/10/20 11:52:07;;;;;;;4.35;2.58;;;;;;;;;;5012321;28;20500;-70
2022/10/20 11:54:32;;;;;;;1.20;1.00;;;;;;;;;;5029809;28;20018;-71
2022/10/20 11:56:57;;;;;;;0.63;0.63;;;;;;;;;;5046542;28;20029;-70
2022/10/20 11:59:32;;;;;;;0.68;0.50;;;;;;;;;;5048544;28;20391;-72
2022/10/20 12:02:17;;;;;;;1.85;1.58;;;;;;;;;;5047394;28;20036;-70
2022/10/20 12:04:43;;;;;;;2.75;1.90;;;;;;;;;;5047499;28;20032;-70
2022/10/20 12:07:27;;;;;;;2.78;1.75;;;;;;;;;;5047839;28;20502;-70
2022/10/20 12:09:58;;;;;;;0.38;0.38;;;;;;;;;;5049240;28;20064;-71
2022/10/20 12:12:52;;;;;;;2.03;1.65;;;;;;;;;;5045377;28;20033;-70
2022/10/20 12:15:20;;;;;;;0.85;0.77;;;;;;;;;;5032001;28;20592;-71
2022/10/20 12:17:46;;;;;;;3.85;1.73;;;;;;;;;;5028274;28;20444;-72
2022/10/20 12:20:20;;;;;;;0.22;0.22;;;;;;;;;;5046498;28;20095;-71
2022/10/20 12:22:58;;;;;;;3.10;1.45;;;;;;;;;;5035956;28;20710;-70
2022/10/20 12:25:23;;;;;;;7.57;6.63;;;;;;;;;;5020099;28;20029;-71
2022/10/20 12:28:08;;;;;;;0.45;0.45;;;;;;;;;;5038611;28;20036;-73
2022/10/20 12:30:37;;;;;;;0.85;0.85;;;;;;;;;;5044322;28;20032;-71
2022/10/20 12:33:19;;;;;;;0.30;0.30;;;;;;;;;;5043974;28;20480;-72
2022/10/20 12:35:58;;;;;;;0.30;0.30;;;;;;;;;;5043490;28;20036;-71
2022/10/20 12:38:24;;;;;;;3.78;1.77;;;;;;;;;;5046300;28;20033;-71
2022/10/20 12:40:57;;;;;;;2.95;1.65;;;;;;;;;;5044240;28;20095;-71
2022/10/20 12:43:22;;;;;;;0.88;0.30;;;;;;;;;;5028624;28;20033;-71
2022/10/20 12:45:49;;;;;;;3.28;2.20;;;;;;;;;;5046794;28;20094;-70
2022/10/20 12:48:22;;;;;;;0.30;0.30;;;;;;;;;;5029657;28;20108;-70
2022/10/20 12:50:49;;;;;;;0.32;0.32;;;;;;;;;;5029496;28;20033;-71
2022/10/20 12:53:14;;;;;;;2.72;1.48;;;;;;;;;;5046470;28;20036;-70
2022/10/20 12:55:40;;;;;;;2.42;0.98;;;;;;;;;;5045517;28;20029;-71
2022/10/20 12:58:10;;;;;;;0.20;0.20;;;;;;;;;;5047414;28;20427;-72
2022/10/20 13:00:35;;;;;;;0.70;0.45;;;;;;;;;;5028894;28;20043;-71
2022/10/20 13:03:01;;;;;;;0.30;0.30;;;;;;;;;;5046818;28;20025;-72
2022/10/20 13:05:40;;;;;;;0.30;0.30;;;;;;;;;;5047039;28;20431;-70
2022/10/20 13:08:26;;;;;;;1.50;0.93;;;;;;;;;;5047276;28;20502;-69
2022/10/20 13:10:52;;;;;;;0.30;0.30;;;;;;;;;;5048328;28;20108;-72
2022/10/20 13:13:18;;;;;;;1.92;0.90;;;;;;;;;;5014753;28;20098;-71
2022/10/20 13:15:46;;;;;;;0.73;0.70;;;;;;;;;;5047771;28;20033;-71
2022/10/20 13:18:11;;;;;;;0.30;0.30;;;;;;;;;;5051027;28;20040;-71
2022/10/20 13:20:37;;;;;;;0.35;0.32;;;;;;;;;;5052385;28;20040;-71
2022/10/20 13:23:03;;;;;;;7.85;2.72;;;;;;;;;;5052817;28;20021;-72
2022/10/20 13:25:39;;;;;;;1.48;0.82;;;;;;;;;;5050600;28;20037;-72
2022/10/20 13:28:13;;;;;;;7.72;2.80;;;;;;;;;;5022475;28;20026;-72
2022/10/20 13:30:48;;;;;;;0.55;0.50;;;;;;;;;;5051682;28;20391;-72
2022/10/20 13:33:27;;;;;;;0.35;0.30;;;;;;;;;;5052451;28;20404;-72
2022/10/20 13:36:01;;;;;;;1.35;0.85;;;;;;;;;;5037000;28;20032;-71
2022/10/20 13:38:26;;;;;;;0.43;0.30;;;;;;;;;;5031670;28;20022;-73
2022/10/20 13:40:52;;;;;;;5.40;1.00;;;;;;;;;;5045519;28;20036;-72
2022/10/20 13:43:17;;;;;;;2.80;1.80;;;;;;;;;;5050655;28;20035;-73
2022/10/20 13:45:42;;;;;;;4.25;1.55;;;;;;;;;;5051254;28;20032;-71
2022/10/20 13:48:17;;;;;;;0.30;0.28;;;;;;;;;;5051138;28;20119;-72
2022/10/20 13:50:44;;;;;;;1.50;1.05;;;;;;;;;;5051741;28;20029;-70
2022/10/20 13:53:21;;;;;;;0.63;0.45;;;;;;;;;;5046280;28;20813;-71
2022/10/20 13:56:01;;;;;;;3.50;1.00;;;;;;;;;;5051643;28;20025;-71
2022/10/20 13:58:27;;;;;;;0.20;0.20;;;;;;;;;;5047850;28;20507;-71
2022/10/20 14:01:24;;;;;;;3.28;1.92;;;;;;;;;;5051701;28;20025;-71
2022/10/20 14:03:50;;;;;;;0.98;0.80;;;;;;;;;;4997628;28;20055;-71
2022/10/20 14:06:35;;;;;;;2.13;1.23;;;;;;;;;;5034148;28;20026;-70
2022/10/20 14:09:15;;;;;;;3.40;1.65;;;;;;;;;;5051759;28;20029;-71
2022/10/20 14:11:42;;;;;;;3.03;0.52;;;;;;;;;;5052425;28;20506;-71
2022/10/20 14:14:11;;;;;;;2.88;1.95;;;;;;;;;;5051361;28;20037;-71
2022/10/20 14:16:38;;;;;;;1.95;1.40;;;;;;;;;;5050208;28;20021;-72
2022/10/20 14:19:09;;;;;;;5.50;1.40;;;;;;;;;;5049822;28;20108;-71
2022/10/20 14:21:42;;;;;;;0.95;0.65;;;;;;;;;;5050313;28;20553;-71
2022/10/20 14:24:14;;;;;;;1.00;0.65;;;;;;;;;;5051019;28;20049;-72
2022/10/20 14:26:42;;;;;;;1.20;0.98;;;;;;;;;;5050723;28;20063;-72
2022/10/20 14:29:11;;;;;;;1.13;1.02;;;;;;;;;;5049597;28;20098;-71
2022/10/20 14:31:36;;;;;;;2.30;1.38;;;;;;;;;;5033755;28;20048;-71
2022/10/20 14:34:02;;;;;;;0.57;0.50;;;;;;;;;;5051564;28;20025;-71
2022/10/20 14:36:28;;;;;;;1.40;1.08;;;;;;;;;;5033429;28;20373;-72
2022/10/20 14:38:56;;;;;;;0.40;0.40;;;;;;;;;;5051849;28;20029;-72
2022/10/20 14:41:26;;;;;;;5.93;3.65;;;;;;;;;;5050151;28;20056;-71
2022/10/20 14:43:57;;;;;;;2.08;1.50;;;;;;;;;;5051102;28;20024;-71
2022/10/20 14:46:26;;;;;;;2.80;1.27;;;;;;;;;;5051063;28;20563;-72
2022/10/20 14:48:51;;;;;;;1.92;1.48;;;;;;;;;;5051047;28;20033;-72
2022/10/20 14:51:26;;;;;;;0.80;0.77;;;;;;;;;;5051404;28;20376;-71
2022/10/20 14:54:11;;;;;;;0.38;0.35;;;;;;;;;;5051085;28;20476;-71
2022/10/20 14:56:41;;;;;;;2.90;1.63;;;;;;;;;;5051089;28;20037;-72
2022/10/20 14:59:20;;;;;;;2.67;1.25;;;;;;;;;;5051006;28;20476;-73